createdAt,value
2022-12-19T00:00:04.446Z,100912.78
2022-12-19T00:02:39.792Z,100938.13
2022-12-19T00:05:07.337Z,100939.00
2022-12-19T00:07:34.316Z,100932.06
2022-12-19T00:10:01.303Z,100934.72
2022-12-19T00:12:29.887Z,100912.84
2022-12-19T00:14:56.833Z,100940.75
2022-12-19T00:17:25.863Z,100938.22
2022-12-19T00:19:52.855Z,100939.88
2022-12-19T00:22:19.813Z,100938.16
2022-12-19T00:24:48.254Z,100950.19
2022-12-19T00:27:15.296Z,100939.94
2022-12-19T00:29:42.257Z,100939.84
2022-12-19T00:32:09.278Z,100950.09
2022-12-19T00:34:39.468Z,100949.09
2022-12-19T00:37:06.411Z,100943.03
2022-12-19T00:39:33.417Z,100953.91
2022-12-19T00:42:00.440Z,100956.38
2022-12-19T00:44:27.651Z,100954.69
2022-12-19T00:46:54.633Z,100943.56
2022-12-19T00:49:21.670Z,100949.31
2022-12-19T00:51:48.689Z,100963.09
2022-12-19T00:54:15.779Z,100949.41
2022-12-19T00:56:43.163Z,100954.31
2022-12-19T00:59:26.854Z,100928.91
2022-12-19T01:02:27.499Z,100945.81
2022-12-19T01:05:26.874Z,100937.75
2022-12-19T01:08:02.978Z,100947.00
2022-12-19T01:10:30.434Z,100941.56
2022-12-19T01:12:57.624Z,100926.94
2022-12-19T01:15:24.699Z,100931.91
2022-12-19T01:17:51.776Z,100934.31
2022-12-19T01:20:27.595Z,100920.97
2022-12-19T01:23:23.487Z,100919.22
2022-12-19T01:25:53.985Z,100926.03
2022-12-19T01:28:22.630Z,100929.16
2022-12-19T01:30:49.846Z,100935.88
2022-12-19T01:33:20.970Z,100934.56
2022-12-19T01:35:49.276Z,100936.88
2022-12-19T01:38:18.883Z,100915.50
2022-12-19T01:40:54.471Z,100932.31
2022-12-19T01:43:22.439Z,100925.13
2022-12-19T01:46:02.674Z,100927.34
2022-12-19T01:49:06.056Z,100912.22
2022-12-19T01:51:46.029Z,100917.94
2022-12-19T01:54:19.448Z,100912.47
2022-12-19T01:56:50.846Z,100912.13
2022-12-19T01:59:22.870Z,100923.25
2022-12-19T02:01:56.085Z,100932.22
2022-12-19T02:04:28.248Z,100919.44
2022-12-19T02:07:00.432Z,100930.38
2022-12-19T02:09:37.009Z,100924.91
2022-12-19T02:12:05.459Z,100911.38
2022-12-19T02:14:36.684Z,100936.91
2022-12-19T02:17:10.107Z,100935.34
2022-12-19T02:19:52.438Z,100922.25
2022-12-19T02:22:38.004Z,100927.44
2022-12-19T02:25:13.797Z,100920.25
2022-12-19T02:28:18.737Z,100917.19
2022-12-19T02:31:10.771Z,100910.59
2022-12-19T02:33:56.717Z,100918.22
2022-12-19T02:36:57.499Z,100911.63
2022-12-19T02:39:48.627Z,100910.44
2022-12-19T02:42:24.984Z,100891.06
2022-12-19T02:44:55.129Z,100899.78
2022-12-19T02:47:22.435Z,100889.78
2022-12-19T02:49:49.538Z,100892.75
2022-12-19T02:52:19.961Z,100887.44
2022-12-19T02:54:53.594Z,100889.84
2022-12-19T02:57:28.111Z,100873.28
2022-12-19T03:00:04.425Z,100864.81
2022-12-19T03:02:43.537Z,100875.31
2022-12-19T03:05:38.730Z,100868.34
2022-12-19T03:08:24.398Z,100866.22
2022-12-19T03:10:54.486Z,100858.28
2022-12-19T03:13:35.568Z,100848.50
2022-12-19T03:16:05.036Z,100861.88
2022-12-19T03:18:33.675Z,100846.22
2022-12-19T03:21:12.575Z,100847.44
2022-12-19T03:23:40.515Z,100850.06
2022-12-19T03:26:12.532Z,100860.75
2022-12-19T03:28:54.923Z,100849.38
2022-12-19T03:31:28.636Z,100836.91
2022-12-19T03:34:00.136Z,100846.84
2022-12-19T03:36:42.307Z,100841.06
2022-12-19T03:39:13.031Z,100836.97
2022-12-19T03:42:02.611Z,100839.78
2022-12-19T03:44:35.183Z,100843.72
2022-12-19T03:47:33.147Z,100834.09
2022-12-19T03:50:00.325Z,100828.97
2022-12-19T03:53:04.650Z,100817.66
2022-12-19T03:55:41.459Z,100816.22
2022-12-19T03:58:12.230Z,100829.28
2022-12-19T04:00:43.781Z,100834.22
2022-12-19T04:03:11.624Z,100827.38
2022-12-19T04:05:41.703Z,100824.00
2022-12-19T04:08:11.118Z,100820.38
2022-12-19T04:10:55.270Z,100816.72
2022-12-19T04:13:45.438Z,100818.06
2022-12-19T04:16:53.050Z,100809.28
2022-12-19T04:19:28.284Z,100798.13
2022-12-19T04:22:08.248Z,100805.59
2022-12-19T04:24:40.692Z,100796.53
2022-12-19T04:27:09.915Z,100805.91
2022-12-19T04:29:39.534Z,100808.81
2022-12-19T04:32:08.850Z,100791.22
2022-12-19T04:34:38.922Z,100793.28
2022-12-19T04:37:09.957Z,100784.94
2022-12-19T04:39:37.050Z,100788.03
2022-12-19T04:42:04.253Z,100782.81
2022-12-19T04:44:31.261Z,100789.94
2022-12-19T04:46:58.515Z,100806.72
2022-12-19T04:49:25.681Z,100788.59
2022-12-19T04:51:52.702Z,100804.38
2022-12-19T04:54:19.942Z,100811.34
2022-12-19T04:56:46.959Z,100814.66
2022-12-19T04:59:13.990Z,100816.38
2022-12-19T05:01:41.076Z,100815.59
2022-12-19T05:04:08.163Z,100811.50
2022-12-19T05:06:36.556Z,100807.53
2022-12-19T05:09:03.698Z,100810.22
2022-12-19T05:11:30.860Z,100816.84
2022-12-19T05:13:59.770Z,100822.69
2022-12-19T05:16:26.831Z,100798.50
2022-12-19T05:18:54.447Z,100816.03
2022-12-19T05:21:23.057Z,100798.97
2022-12-19T05:23:52.127Z,100814.91
2022-12-19T05:26:19.755Z,100816.22
2022-12-19T05:28:47.059Z,100803.28
2022-12-19T05:31:19.897Z,100813.16
2022-12-19T05:33:48.237Z,100817.63
2022-12-19T05:36:16.698Z,100810.88
2022-12-19T05:38:44.726Z,100823.69
2022-12-19T05:41:16.787Z,100803.97
2022-12-19T05:43:50.266Z,100806.31
2022-12-19T05:46:17.583Z,100804.56
2022-12-19T05:48:44.598Z,100806.13
2022-12-19T05:51:13.384Z,100788.25
2022-12-19T05:53:41.444Z,100800.69
2022-12-19T05:56:11.199Z,100800.69
2022-12-19T05:58:39.278Z,100798.06
2022-12-19T06:01:08.380Z,100798.41
2022-12-19T06:03:35.479Z,100802.34
2022-12-19T06:06:09.001Z,100790.63
2022-12-19T06:08:37.124Z,100790.84
2022-12-19T06:11:06.633Z,100786.13
2022-12-19T06:13:35.414Z,100790.09
2022-12-19T06:16:16.673Z,100778.31
2022-12-19T06:18:45.701Z,100795.81
2022-12-19T06:21:15.612Z,100796.69
2022-12-19T06:23:43.655Z,100804.06
2022-12-19T06:26:18.592Z,100806.81
2022-12-19T06:28:47.147Z,100815.22
2022-12-19T06:31:14.678Z,100820.50
2022-12-19T06:33:41.759Z,100819.66
2022-12-19T06:36:14.858Z,100820.34
2022-12-19T06:38:42.167Z,100831.31
2022-12-19T06:41:28.989Z,100816.13
2022-12-19T06:44:04.351Z,100822.38
2022-12-19T06:46:31.702Z,100805.56
2022-12-19T06:48:58.834Z,100810.38
2022-12-19T06:51:26.138Z,100815.53
2022-12-19T06:53:53.763Z,100813.03
2022-12-19T06:56:20.759Z,100812.38
2022-12-19T06:58:48.816Z,100811.34
2022-12-19T07:01:23.934Z,100815.59
2022-12-19T07:03:51.088Z,100812.06
2022-12-19T07:06:18.072Z,100817.56
2022-12-19T07:08:45.096Z,100814.88
2022-12-19T07:11:12.151Z,100806.94
2022-12-19T07:13:39.113Z,100803.00
2022-12-19T07:16:06.944Z,100802.53
2022-12-19T07:18:38.421Z,100793.91
2022-12-19T07:21:07.908Z,100790.19
2022-12-19T07:23:35.689Z,100778.09
2022-12-19T07:26:03.893Z,100777.72
2022-12-19T07:28:32.859Z,100775.16
2022-12-19T07:30:59.854Z,100786.78
2022-12-19T07:33:27.114Z,100791.09
2022-12-19T07:35:54.361Z,100801.31
2022-12-19T07:38:21.370Z,100793.47
2022-12-19T07:40:48.394Z,100806.44
2022-12-19T07:43:15.414Z,100811.06
2022-12-19T07:45:43.832Z,100813.50
2022-12-19T07:48:10.869Z,100816.03
2022-12-19T07:50:38.105Z,100819.81
2022-12-19T07:53:05.108Z,100810.78
2022-12-19T07:55:32.151Z,100817.84
2022-12-19T07:57:59.795Z,100802.81
2022-12-19T08:00:26.859Z,100820.41
2022-12-19T08:02:54.026Z,100820.09
2022-12-19T08:05:21.205Z,100809.09
2022-12-19T08:07:48.228Z,100807.91
2022-12-19T08:10:15.926Z,100802.53
2022-12-19T08:12:42.950Z,100798.50
2022-12-19T08:15:10.933Z,100790.38
2022-12-19T08:17:41.643Z,100799.28
2022-12-19T08:20:09.747Z,100792.38
2022-12-19T08:22:36.749Z,100781.25
2022-12-19T08:25:04.508Z,100794.97
2022-12-19T08:27:31.579Z,100797.75
2022-12-19T08:29:58.610Z,100798.78
2022-12-19T08:32:25.625Z,100792.38
2022-12-19T08:34:52.649Z,100781.88
2022-12-19T08:37:19.630Z,100801.22
2022-12-19T08:39:46.752Z,100794.31
2022-12-19T08:42:13.946Z,100801.03
2022-12-19T08:44:40.959Z,100789.03
2022-12-19T08:47:07.966Z,100798.44
2022-12-19T08:49:35.165Z,100775.75
2022-12-19T08:52:02.214Z,100779.31
2022-12-19T08:54:29.241Z,100783.03
2022-12-19T08:56:56.289Z,100771.94
2022-12-19T08:59:31.837Z,100778.91
2022-12-19T09:02:02.727Z,100778.88
2022-12-19T09:05:16.090Z,100777.19
2022-12-19T09:07:18.488Z,100781.16
2022-12-19T09:09:45.660Z,100775.84
2022-12-19T09:12:14.482Z,100777.44
2022-12-19T09:14:41.510Z,100779.63
2022-12-19T09:17:09.179Z,100777.19
2022-12-19T09:19:36.358Z,100781.00
2022-12-19T09:22:03.412Z,100775.31
2022-12-19T09:24:30.385Z,100778.38
2022-12-19T09:26:57.377Z,100780.34
2022-12-19T09:29:24.861Z,100774.34
2022-12-19T09:31:56.098Z,100778.28
2022-12-19T09:34:37.058Z,100774.66
2022-12-19T09:37:16.480Z,100769.50
2022-12-19T09:39:46.465Z,100762.97
2022-12-19T09:42:22.709Z,100775.28
2022-12-19T09:45:09.868Z,100769.59
2022-12-19T09:47:45.022Z,100768.88
2022-12-19T09:50:32.191Z,100771.19
2022-12-19T09:53:06.264Z,100769.06
2022-12-19T09:55:37.796Z,100769.28
2022-12-19T09:58:20.260Z,100778.94
2022-12-19T10:00:57.395Z,100752.22
2022-12-19T10:03:41.788Z,100769.19
2022-12-19T10:07:18.273Z,100755.06
2022-12-19T10:11:15.358Z,100754.53
2022-12-19T10:12:45.398Z,100770.66
2022-12-19T10:15:23.333Z,100767.78
2022-12-19T10:18:12.094Z,100768.75
2022-12-19T10:20:45.737Z,100763.19
2022-12-19T10:23:38.631Z,100762.78
2022-12-19T10:26:18.665Z,100762.00
2022-12-19T10:28:48.561Z,100753.06
2022-12-19T10:31:35.256Z,100772.94
2022-12-19T10:34:24.200Z,100761.44
2022-12-19T10:37:27.193Z,100765.84
2022-12-19T10:39:59.387Z,100759.66
2022-12-19T10:42:52.655Z,100764.81
2022-12-19T10:45:22.598Z,100747.53
2022-12-19T10:47:57.701Z,100762.34
2022-12-19T10:50:29.205Z,100761.22
2022-12-19T10:53:07.832Z,100755.28
2022-12-19T10:55:46.318Z,100757.53
2022-12-19T10:58:48.688Z,100766.25
2022-12-19T11:01:30.609Z,100759.31
2022-12-19T11:04:36.152Z,100763.97
2022-12-19T11:07:03.837Z,100771.56
2022-12-19T11:09:38.938Z,100757.53
2022-12-19T11:16:32.267Z,100758.22
2022-12-19T11:20:45.193Z,100762.22
2022-12-19T11:27:29.939Z,100767.41
2022-12-19T11:29:24.897Z,100776.00
2022-12-19T11:30:43.364Z,100772.06
2022-12-19T11:30:46.773Z,100777.63
2022-12-19T11:33:18.911Z,100774.81
2022-12-19T11:35:55.125Z,100764.38
2022-12-19T11:39:00.732Z,100779.41
2022-12-19T11:41:41.228Z,100785.47
2022-12-19T11:44:13.903Z,100777.56
2022-12-19T11:46:49.404Z,100783.31
2022-12-19T11:49:37.446Z,100789.88
2022-12-19T11:53:02.892Z,100784.06
2022-12-19T11:55:21.692Z,100786.16
2022-12-19T11:57:48.980Z,100785.75
2022-12-19T12:00:22.018Z,100784.00
2022-12-19T12:03:21.130Z,100792.47
2022-12-19T12:05:50.109Z,100792.66
2022-12-19T12:11:05.297Z,100796.38
2022-12-19T12:17:22.965Z,100795.41
2022-12-19T12:24:35.125Z,100796.81
2022-12-19T12:31:12.075Z,100806.38
2022-12-19T12:31:12.949Z,100804.78
2022-12-19T12:31:13.772Z,100812.94
2022-12-19T12:31:47.723Z,100812.03
2022-12-19T12:32:02.059Z,100809.41
2022-12-19T12:35:16.502Z,100819.63
2022-12-19T12:40:04.833Z,100832.09
2022-12-19T12:42:53.252Z,100832.53
2022-12-19T12:45:31.155Z,100836.91
2022-12-19T12:47:58.180Z,100836.56
2022-12-19T12:50:27.108Z,100847.75
2022-12-19T12:52:58.275Z,100836.47
2022-12-19T12:55:31.347Z,100848.25
2022-12-19T12:57:58.582Z,100837.16
2022-12-19T13:00:34.914Z,100857.41
2022-12-19T13:03:11.608Z,100855.41
2022-12-19T13:05:47.632Z,100858.34
2022-12-19T13:08:39.093Z,100862.56
2022-12-19T13:11:55.987Z,100858.25
2022-12-19T13:14:35.518Z,100865.72
2022-12-19T13:17:07.029Z,100861.63
2022-12-19T13:19:54.876Z,100853.47
2022-12-19T13:22:43.486Z,100858.75
2022-12-19T13:25:38.276Z,100868.25
2022-12-19T13:28:23.394Z,100862.81
2022-12-19T13:31:18.871Z,100851.03
2022-12-19T13:33:56.059Z,100868.59
2022-12-19T13:39:48.235Z,100879.44
2022-12-19T13:40:04.861Z,100871.31
2022-12-19T13:42:45.089Z,100869.09
2022-12-19T13:45:12.044Z,100868.59
2022-12-19T13:47:43.769Z,100873.06
2022-12-19T13:50:30.506Z,100878.13
2022-12-19T13:52:57.583Z,100876.94
2022-12-19T13:55:28.943Z,100878.84
2022-12-19T13:57:57.023Z,100871.91
2022-12-19T14:00:42.318Z,100872.22
2022-12-19T14:03:18.502Z,100878.19
2022-12-19T14:06:16.266Z,100883.31
2022-12-19T14:08:32.957Z,100891.03
2022-12-19T14:11:41.660Z,100891.69
2022-12-19T14:14:17.707Z,100888.97
2022-12-19T14:16:49.106Z,100892.47
2022-12-19T14:19:21.668Z,100903.03
2022-12-19T14:22:10.962Z,100890.66
2022-12-19T14:24:36.086Z,100901.72
2022-12-19T14:28:25.426Z,100887.81
2022-12-19T14:30:27.579Z,100889.09
2022-12-19T14:33:39.211Z,100883.66
2022-12-19T14:36:12.267Z,100894.00
2022-12-19T14:39:23.614Z,100896.91
2022-12-19T14:41:47.756Z,100896.91
2022-12-19T14:52:34.658Z,100890.44
2022-12-19T14:53:52.547Z,100887.34
2022-12-19T14:54:08.374Z,100892.78
2022-12-19T14:54:29.068Z,100888.22
2022-12-19T14:59:03.079Z,100887.72
2022-12-19T15:01:33.229Z,100891.72
2022-12-19T15:04:50.342Z,100901.81
2022-12-19T15:07:08.790Z,100906.66
2022-12-19T15:11:03.347Z,100908.47
2022-12-19T15:14:47.629Z,100912.66
2022-12-19T15:16:05.748Z,100909.44
2022-12-19T15:18:32.938Z,100912.81
2022-12-19T15:21:02.827Z,100908.59
2022-12-19T15:23:30.778Z,100914.59
2022-12-19T15:26:05.322Z,100907.63
2022-12-19T15:28:42.600Z,100915.81
2022-12-19T15:31:24.459Z,100917.72
2022-12-19T15:36:38.716Z,100910.38
2022-12-19T15:39:09.055Z,100909.72
2022-12-19T15:41:36.329Z,100910.38
2022-12-19T15:44:31.545Z,100917.25
2022-12-19T15:47:02.659Z,100917.09
2022-12-19T15:49:31.647Z,100922.00
2022-12-19T15:52:05.234Z,100915.81
2022-12-19T15:54:49.729Z,100915.94
2022-12-19T15:57:31.540Z,100907.25
2022-12-19T16:00:01.677Z,100920.75
2022-12-19T16:05:22.579Z,100920.84
2022-12-19T16:07:49.975Z,100916.41
2022-12-19T16:10:17.712Z,100921.59
2022-12-19T16:12:56.715Z,100910.75
2022-12-19T16:15:29.565Z,100921.84
2022-12-19T16:17:58.059Z,100914.41
2022-12-19T16:20:28.278Z,100916.63
2022-12-19T16:22:55.523Z,100910.41
2022-12-19T16:25:31.920Z,100919.94
2022-12-19T16:28:00.630Z,100926.50
2022-12-19T16:30:33.105Z,100913.03
2022-12-19T16:33:00.487Z,100923.13
2022-12-19T16:36:02.514Z,100920.00
2022-12-19T16:38:17.190Z,100917.34
2022-12-19T16:40:45.589Z,100914.69
2022-12-19T16:43:21.549Z,100920.94
2022-12-19T16:45:48.571Z,100892.13
2022-12-19T16:48:24.120Z,100918.19
2022-12-19T16:50:51.295Z,100891.81
2022-12-19T16:53:19.096Z,100914.03
2022-12-19T16:55:48.642Z,100915.63
2022-12-19T16:58:20.380Z,100923.22
2022-12-19T17:00:48.511Z,100917.81
2022-12-19T17:03:41.019Z,100908.84
2022-12-19T17:06:19.739Z,100919.41
2022-12-19T17:08:47.399Z,100921.03
2022-12-19T17:11:17.427Z,100927.25
2022-12-19T17:13:47.802Z,100932.03
2022-12-19T17:16:15.450Z,100930.13
2022-12-19T17:18:43.673Z,100930.50
2022-12-19T17:21:23.212Z,100932.03
2022-12-19T17:23:50.525Z,100932.03
2022-12-19T17:26:18.454Z,100937.38
2022-12-19T17:28:48.638Z,100948.03
2022-12-19T17:31:29.016Z,100943.41
2022-12-19T17:33:58.295Z,100950.41
2022-12-19T17:36:37.028Z,100942.56
2022-12-19T17:39:21.675Z,100948.13
2022-12-19T17:41:49.976Z,100960.56
2022-12-19T17:44:17.725Z,100957.44
2022-12-19T17:46:46.012Z,100942.44
2022-12-19T17:49:20.766Z,100946.94
2022-12-19T17:51:52.463Z,100950.13
2022-12-19T17:54:21.020Z,100951.50
2022-12-19T17:56:48.148Z,100947.41
2022-12-19T17:59:17.375Z,100957.06
2022-12-19T18:01:47.339Z,100949.56
2022-12-19T18:04:17.481Z,100947.03
2022-12-19T18:06:45.507Z,100952.78
2022-12-19T18:09:18.967Z,100956.31
2022-12-19T18:11:46.972Z,100961.63
2022-12-19T18:14:14.528Z,100951.75
2022-12-19T18:16:42.209Z,100960.94
2022-12-19T18:19:18.977Z,100966.13
2022-12-19T18:21:46.551Z,100957.91
2022-12-19T18:24:14.912Z,100959.41
2022-12-19T18:26:42.270Z,100971.97
2022-12-19T18:29:09.824Z,100965.88
2022-12-19T18:31:37.390Z,100961.31
2022-12-19T18:34:07.967Z,100968.09
2022-12-19T18:36:40.310Z,100969.00
2022-12-19T18:39:19.669Z,100966.97
2022-12-19T18:41:46.786Z,100961.63
2022-12-19T18:44:14.252Z,100961.53
2022-12-19T18:46:44.607Z,100933.53
2022-12-19T18:49:15.929Z,100934.66
2022-12-19T18:51:44.894Z,100970.03
2022-12-19T18:54:22.296Z,100971.31
2022-12-19T18:56:49.340Z,100968.22
2022-12-19T18:59:16.351Z,100964.75
2022-12-19T19:01:46.792Z,100959.22
2022-12-19T19:04:18.125Z,100949.41
2022-12-19T19:06:50.789Z,100953.16
2022-12-19T19:09:19.989Z,100948.13
2022-12-19T19:12:19.844Z,100959.41
2022-12-19T19:14:46.814Z,100974.22
2022-12-19T19:17:23.462Z,100975.97
2022-12-19T19:19:50.642Z,100949.66
2022-12-19T19:22:17.685Z,100968.88
2022-12-19T19:24:44.687Z,100969.72
2022-12-19T19:27:11.725Z,100948.75
2022-12-19T19:29:39.014Z,100964.19
2022-12-19T19:32:06.054Z,100972.63
2022-12-19T19:34:37.559Z,100970.13
2022-12-19T19:37:07.994Z,100971.69
2022-12-19T19:39:35.815Z,100967.56
2022-12-19T19:42:02.984Z,100968.91
2022-12-19T19:44:30.305Z,100969.09
2022-12-19T19:46:57.449Z,100973.28
2022-12-19T19:49:24.563Z,100965.75
2022-12-19T19:51:55.564Z,100971.69
2022-12-19T19:54:25.595Z,100963.41
2022-12-19T19:56:52.597Z,100974.13
2022-12-19T19:59:19.902Z,100973.91
2022-12-19T20:01:47.088Z,100971.06
2022-12-19T20:04:14.886Z,100978.19
2022-12-19T20:06:41.978Z,100947.31
2022-12-19T20:09:09.069Z,100979.38
2022-12-19T20:11:36.168Z,100980.22
2022-12-19T20:14:04.582Z,100975.19
2022-12-19T20:16:31.726Z,100983.59
2022-12-19T20:18:58.862Z,100993.84
2022-12-19T20:21:25.889Z,100978.31
2022-12-19T20:23:53.165Z,100994.56
2022-12-19T20:26:23.026Z,101000.56
2022-12-19T20:28:51.404Z,101001.13
2022-12-19T20:31:19.926Z,101001.91
2022-12-19T20:33:48.639Z,101000.47
2022-12-19T20:36:16.419Z,100989.97
2022-12-19T20:38:43.780Z,101002.16
2022-12-19T20:41:11.142Z,101000.56
2022-12-19T20:43:38.809Z,101005.38
2022-12-19T20:46:14.779Z,101001.22
2022-12-19T20:48:42.369Z,100995.91
2022-12-19T20:51:10.281Z,101003.72
2022-12-19T20:53:38.801Z,101004.44
2022-12-19T20:56:07.015Z,101010.34
2022-12-19T20:58:35.837Z,100987.72
2022-12-19T21:01:06.479Z,100997.13
2022-12-19T21:03:34.075Z,100996.13
2022-12-19T21:06:01.393Z,100994.97
2022-12-19T21:08:28.669Z,100983.91
2022-12-19T21:10:56.051Z,100994.66
2022-12-19T21:13:23.609Z,100995.19
2022-12-19T21:15:59.157Z,100995.44
2022-12-19T21:18:26.948Z,100987.41
2022-12-19T21:20:54.307Z,100993.06
2022-12-19T21:23:22.754Z,100971.44
2022-12-19T21:25:50.020Z,100997.72
2022-12-19T21:28:17.323Z,100991.94
2022-12-19T21:30:44.733Z,101005.53
2022-12-19T21:33:11.744Z,101001.94
2022-12-19T21:35:39.090Z,101003.97
2022-12-19T21:38:06.368Z,101002.41
2022-12-19T21:40:36.096Z,100998.94
2022-12-19T21:43:11.239Z,100981.09
2022-12-19T21:45:39.421Z,101001.28
2022-12-19T21:48:06.622Z,101010.00
2022-12-19T21:50:34.170Z,101003.09
2022-12-19T21:53:01.274Z,100997.22
2022-12-19T21:55:28.343Z,100996.00
2022-12-19T21:57:55.502Z,100986.38
2022-12-19T22:00:22.650Z,100991.56
2022-12-19T22:03:12.557Z,100979.28
2022-12-19T22:05:36.959Z,100976.03
2022-12-19T22:08:04.163Z,100980.22
2022-12-19T22:10:31.321Z,100968.38
2022-12-19T22:12:58.267Z,100966.75
2022-12-19T22:15:25.236Z,100977.25
2022-12-19T22:17:52.244Z,100985.38
2022-12-19T22:20:19.223Z,100989.97
2022-12-19T22:22:46.303Z,100986.97
2022-12-19T22:25:13.278Z,100992.34
2022-12-19T22:27:40.226Z,101004.16
2022-12-19T22:30:11.158Z,100979.00
2022-12-19T22:32:38.447Z,100988.38
2022-12-19T22:35:06.233Z,100988.09
2022-12-19T22:37:33.334Z,100979.88
2022-12-19T22:40:00.601Z,100980.19
2022-12-19T22:42:28.134Z,100967.38
2022-12-19T22:44:55.180Z,100991.31
2022-12-19T22:47:22.262Z,100992.09
2022-12-19T22:49:52.577Z,100993.00
2022-12-19T22:52:19.807Z,100995.41
2022-12-19T22:54:46.839Z,101012.28
2022-12-19T22:57:13.817Z,101008.69
2022-12-19T22:59:41.243Z,100987.84
2022-12-19T23:02:08.874Z,100989.53
2022-12-19T23:04:36.368Z,100982.47
2022-12-19T23:07:03.389Z,100976.94
2022-12-19T23:09:30.390Z,100974.34
2022-12-19T23:11:57.402Z,100939.25
2022-12-19T23:14:24.352Z,100958.53
2022-12-19T23:16:51.593Z,100990.06
2022-12-19T23:19:18.996Z,100980.72
2022-12-19T23:21:46.549Z,100982.44
2022-12-19T23:24:13.803Z,100977.47
2022-12-19T23:26:41.517Z,100979.28
2022-12-19T23:29:11.133Z,100984.66
2022-12-19T23:31:44.275Z,100995.91
2022-12-19T23:34:11.592Z,100975.56
2022-12-19T23:37:09.722Z,100977.63
2022-12-19T23:39:26.122Z,100977.34
2022-12-19T23:41:53.098Z,100988.56
2022-12-19T23:44:20.375Z,100994.44
2022-12-19T23:46:47.365Z,100983.72
2022-12-19T23:49:14.396Z,100978.56
2022-12-19T23:51:41.453Z,100970.63
2022-12-19T23:54:09.009Z,100973.69
2022-12-19T23:56:36.488Z,100989.66
2022-12-19T23:59:03.864Z,100994.56
